Nearby METAR Reports

Actuele Vliegveldwaarnemingen NL (METAR).Zie KNMI uitleg METAR hier

EHAM - Amsterdam/Schiph, Netherlands
Distance from station: ONO 18km
Updated: 17/06/2019 17:25
Few Clouds
Few Clouds
 Wind van NW
Wind: NW 11 km/h
Temperatuur: 23°C
Dauwpunt: 15°C
Vochtigheid: 61%
Barometer: 1018 hPa
Clouds: Few Clouds
Visibility: 10 km
Cloud details: Few Clouds 1372 m
2019/06/17 15:25 EHAM 171525Z 31006KT 260V360 9999 FEW045 23/15 Q1018 NOSIG
EHKD - DE KOOY/DE KOOY
Updated: 17/06/2019 17:25
Gedeeltelijk bewolkt
Gedeeltelijk bewolkt
 Wind van W
Wind: W 17 km/h
Temperatuur: 20°C
Dauwpunt: 13°C
Vochtigheid: 64%
Barometer: 1018 hPa
Clouds: Gedeeltelijk bewolkt
Visibility: 10 km
Cloud details: Gedeeltelijk bewolkt 6706 m
2019/06/17 15:25 EHKD 171525Z AUTO 26009KT 230V290 9999 SCT220 20/13 Q1018 BLU 24010KT 9999 FEW028
 
EHLW - LEEUWARDEN/LEEUWARDEN
Updated: 17/06/2019 17:25
Few Clouds
Few Clouds
 Wind van ZZW
Wind: ZZW 15 km/h
Temperatuur: 24°C
Dauwpunt: 13°C
Vochtigheid: 50%
Barometer: 1018 hPa
Clouds: Few Clouds
Visibility: 10 km
Cloud details: Few Clouds 2012 m
2019/06/17 15:25 EHLW 171525Z AUTO 21008KT 140V250 9999 FEW066 24/13 Q1018 BLU
EHVK - VOLKEL/VOLKEL
Updated: 17/06/2019 17:25
Few Clouds
Few Clouds
 Wind van Z
Wind: Z 11 km/h
Temperatuur: 26°C
Dauwpunt: 12°C
Vochtigheid: 42%
Barometer: 1017 hPa
Clouds: Few Clouds
Visibility: 10 km
Cloud details: Few Clouds 2012 m
2019/06/17 15:25 EHVK 171525Z AUTO 18006KT 090V230 9999 FEW066 26/12 Q1017 BLU
 
EHFS - VLISSINGEN
Updated: 17/06/2019 17:25
Helder
Helder
 Wind van NW
Wind: NW 11 km/h
Temperatuur: 23°C
Dauwpunt: 15°C
Vochtigheid: 61%
Barometer: 1018 hPa
Clouds: Helder
Visibility: 10 km
2019/06/17 15:25 EHFS 171525Z AUTO 32006KT 250V050 9999 NCD 23/15 Q1018 W///H///
EHEH - EINDHOVEN/EINDHOVEN
Updated: 17/06/2019 17:25
Gedeeltelijk bewolkt
Gedeeltelijk bewolkt
 Wind van Z
Wind: Z 11 km/h
Temperatuur: 25°C
Dauwpunt: 11°C
Vochtigheid: 42%
Barometer: 1017 hPa
Clouds: Gedeeltelijk bewolkt
Visibility: 10 km
Cloud details: Gedeeltelijk bewolkt 2012 m
2019/06/17 15:25 EHEH 171525Z AUTO 17006KT 070V210 9999 SCT066 25/11 Q1017 BLU 18006KT CAVOK
 
EHGR - GILZE-RIJEN/GILZE-RIJEN
Updated: 17/06/2019 17:25
Meestal bewolkt
Meestal bewolkt
 Wind van ZZO
Wind: ZZO 11 km/h
Temperatuur: 25°C
Dauwpunt: 12°C
Vochtigheid: 44%
Barometer: 1017 hPa
Clouds: Meestal bewolkt
Visibility: 10 km
Cloud details: Meestal bewolkt 1829 m
Meestal bewolkt 2012 m
2019/06/17 15:25 EHGR 171525Z AUTO 15006KT 130V220 9999 BKN060 BKN066 25/12 Q1017 BLU
EHDL - ARNHEM/DEELEN
Updated: 17/06/2019 17:25
Meestal bewolkt
Meestal bewolkt
 Wind van varies
Wind: varies 9 km/h
Temperatuur: 25°C
Dauwpunt: 11°C
Vochtigheid: 42%
Barometer: 1018 hPa
Clouds: Meestal bewolkt
Visibility: 10 km
Cloud details: Meestal bewolkt 1829 m
Meestal bewolkt 2012 m
2019/06/17 15:25 EHDL 171525Z AUTO VRB05KT 9999 BKN060 BKN066 25/11 Q1018 BLU
 
EHBK - MAASTRICHT/MAASTRICHT-AACHEN
Updated: 17/06/2019 17:25
Gedeeltelijk bewolkt
Gedeeltelijk bewolkt
 Wind van varies
Wind: varies 6 km/h
Temperatuur: 26°C
Dauwpunt: 12°C
Vochtigheid: 42%
Barometer: 1018 hPa
Clouds: Gedeeltelijk bewolkt
Visibility: 10 km
2019/06/17 15:25 EHBK 171525Z AUTO VRB03KT 9999 NSC 26/12 Q1018 NOSIG